createdAt,value
2018-07-14T00:00:41.484Z,986.36
2018-07-14T00:01:41.435Z,986.36
2018-07-14T00:02:41.386Z,986.35
2018-07-14T00:03:41.337Z,986.35
2018-07-14T00:04:41.285Z,986.33
2018-07-14T00:05:41.236Z,986.32
2018-07-14T00:06:41.187Z,986.33
2018-07-14T00:07:41.141Z,986.30
2018-07-14T00:08:41.085Z,986.33
2018-07-14T00:09:41.036Z,986.31
2018-07-14T00:10:40.988Z,986.33
2018-07-14T00:11:40.936Z,986.30
2018-07-14T00:12:40.887Z,986.32
2018-07-14T00:13:40.838Z,986.33
2018-07-14T00:14:40.785Z,986.31
2018-07-14T00:15:40.734Z,986.29
2018-07-14T00:16:40.684Z,986.29
2018-07-14T00:17:40.634Z,986.28
2018-07-14T00:18:40.592Z,986.27
2018-07-14T00:19:40.538Z,986.32
2018-07-14T00:20:40.483Z,986.30
2018-07-14T00:21:40.433Z,986.23
2018-07-14T00:22:40.383Z,986.26
2018-07-14T00:23:40.333Z,986.27
2018-07-14T00:24:40.288Z,986.26
2018-07-14T00:25:40.241Z,986.25
2018-07-14T00:26:40.182Z,986.23
2018-07-14T00:27:40.132Z,986.23
2018-07-14T00:28:40.083Z,986.23
2018-07-14T00:29:40.032Z,986.24
2018-07-14T00:30:39.982Z,986.23
2018-07-14T00:31:39.932Z,986.24
2018-07-14T00:32:39.880Z,986.25
2018-07-14T00:33:39.845Z,986.23
2018-07-14T00:34:39.782Z,986.26
2018-07-14T00:35:39.731Z,986.25
2018-07-14T00:36:39.685Z,986.21
2018-07-14T00:37:39.629Z,986.28
2018-07-14T00:38:39.579Z,986.27
2018-07-14T00:39:39.531Z,986.28
2018-07-14T00:40:39.479Z,986.30
2018-07-14T00:41:39.434Z,986.34
2018-07-14T00:42:39.378Z,986.33
2018-07-14T00:43:39.327Z,986.33
2018-07-14T00:44:39.276Z,986.31
2018-07-14T00:45:39.225Z,986.33
2018-07-14T00:46:39.177Z,986.29
2018-07-14T00:47:39.126Z,986.33
2018-07-14T00:48:39.074Z,986.31
2018-07-14T00:49:39.024Z,986.30
2018-07-14T00:50:38.974Z,986.32
2018-07-14T00:51:38.924Z,986.33
2018-07-14T00:52:38.872Z,986.32
2018-07-14T00:53:38.821Z,986.33
2018-07-14T00:54:38.771Z,986.35
2018-07-14T00:55:38.721Z,986.33
2018-07-14T00:56:38.670Z,986.36
2018-07-14T00:57:38.619Z,986.34
2018-07-14T00:58:38.568Z,986.34
2018-07-14T00:59:38.517Z,986.35
2018-07-14T01:00:38.468Z,986.36
2018-07-14T01:01:38.415Z,986.31
2018-07-14T01:02:38.365Z,986.34
2018-07-14T01:03:38.314Z,986.33
2018-07-14T01:04:38.264Z,986.35
2018-07-14T01:05:38.212Z,986.39
2018-07-14T01:06:38.166Z,986.35
2018-07-14T01:07:38.114Z,986.31
2018-07-14T01:08:38.063Z,986.32
2018-07-14T01:09:38.012Z,986.32
2018-07-14T01:10:37.960Z,986.25
2018-07-14T01:11:37.910Z,986.26
2018-07-14T01:12:37.860Z,986.23
2018-07-14T01:13:37.807Z,986.27
2018-07-14T01:14:37.756Z,986.29
2018-07-14T01:15:37.707Z,986.26
2018-07-14T01:16:37.656Z,986.24
2018-07-14T01:17:37.646Z,986.26
2018-07-14T01:18:37.556Z,986.24
2018-07-14T01:19:37.505Z,986.26
2018-07-14T01:20:37.452Z,986.31
2018-07-14T01:21:37.402Z,986.28
2018-07-14T01:22:37.353Z,986.32
2018-07-14T01:23:37.302Z,986.34
2018-07-14T01:24:37.252Z,986.34
2018-07-14T01:25:37.202Z,986.38
2018-07-14T01:26:37.149Z,986.39
2018-07-14T01:27:37.100Z,986.43
2018-07-14T01:28:37.048Z,986.35
2018-07-14T01:29:37.000Z,986.39
2018-07-14T01:30:36.948Z,986.42
2018-07-14T01:31:36.898Z,986.40
2018-07-14T01:32:36.846Z,986.43
2018-07-14T01:33:36.794Z,986.39
2018-07-14T01:34:36.748Z,986.40
2018-07-14T01:35:36.694Z,986.37
2018-07-14T01:36:36.643Z,986.38
2018-07-14T01:37:36.594Z,986.42
2018-07-14T01:38:36.546Z,986.40
2018-07-14T01:39:36.493Z,986.35
2018-07-14T01:40:36.494Z,986.38
2018-07-14T01:41:36.392Z,986.31
2018-07-14T01:42:36.341Z,986.33
2018-07-14T01:43:36.296Z,986.29
2018-07-14T01:44:36.242Z,986.30
2018-07-14T01:45:36.188Z,986.31
2018-07-14T01:46:36.137Z,986.30
2018-07-14T01:47:36.088Z,986.30
2018-07-14T01:48:36.037Z,986.29
2018-07-14T01:49:35.987Z,986.29
2018-07-14T01:50:35.936Z,986.29
2018-07-14T01:51:35.886Z,986.38
2018-07-14T01:52:35.833Z,986.36
2018-07-14T01:53:35.785Z,986.36
2018-07-14T01:54:35.735Z,986.38
2018-07-14T01:55:35.683Z,986.39
2018-07-14T01:56:35.631Z,986.39
2018-07-14T01:57:35.583Z,986.43
2018-07-14T01:58:35.530Z,986.42
2018-07-14T01:59:35.480Z,986.42
2018-07-14T02:00:35.430Z,986.43
2018-07-14T02:01:35.378Z,986.43
2018-07-14T02:02:35.328Z,986.39
2018-07-14T02:03:35.276Z,986.41
2018-07-14T02:04:35.224Z,986.44
2018-07-14T02:05:35.175Z,986.41
2018-07-14T02:06:35.127Z,986.41
2018-07-14T02:07:35.072Z,986.42
2018-07-14T02:08:35.020Z,986.43
2018-07-14T02:09:34.976Z,986.43
2018-07-14T02:10:34.920Z,986.44
2018-07-14T02:11:34.872Z,986.43
2018-07-14T02:12:34.818Z,986.40
2018-07-14T02:13:34.768Z,986.43
2018-07-14T02:14:34.717Z,986.45
2018-07-14T02:15:34.668Z,986.46
2018-07-14T02:16:34.614Z,986.43
2018-07-14T02:17:34.563Z,986.40
2018-07-14T02:18:34.513Z,986.40
2018-07-14T02:19:34.467Z,986.41
2018-07-14T02:20:34.410Z,986.40
2018-07-14T02:21:34.369Z,986.39
2018-07-14T02:22:34.309Z,986.35
2018-07-14T02:23:34.259Z,986.39
2018-07-14T02:24:34.207Z,986.39
2018-07-14T02:25:34.155Z,986.38
2018-07-14T02:26:34.105Z,986.32
2018-07-14T02:27:34.059Z,986.34
2018-07-14T02:28:34.004Z,986.37
2018-07-14T02:29:33.953Z,986.37
2018-07-14T02:30:33.902Z,986.38
2018-07-14T02:31:33.854Z,986.42
2018-07-14T02:32:33.802Z,986.47
2018-07-14T02:33:33.751Z,986.43
2018-07-14T02:34:33.701Z,986.43
2018-07-14T02:35:33.658Z,986.43
2018-07-14T02:36:33.602Z,986.46
2018-07-14T02:37:33.549Z,986.42
2018-07-14T02:38:33.497Z,986.47
2018-07-14T02:39:33.444Z,986.47
2018-07-14T02:40:33.393Z,986.49
2018-07-14T02:41:33.343Z,986.48
2018-07-14T02:42:33.291Z,986.53
2018-07-14T02:43:33.240Z,986.52
2018-07-14T02:44:33.190Z,986.51
2018-07-14T02:45:33.137Z,986.57
2018-07-14T02:46:33.087Z,986.58
2018-07-14T02:47:33.034Z,986.62
2018-07-14T02:48:32.987Z,986.58
2018-07-14T02:49:32.931Z,986.63
2018-07-14T02:50:32.879Z,986.60
2018-07-14T02:51:32.829Z,986.62
2018-07-14T02:52:32.777Z,986.62
2018-07-14T02:53:32.728Z,986.61
2018-07-14T02:54:32.675Z,986.64
2018-07-14T02:55:32.623Z,986.67
2018-07-14T02:56:32.570Z,986.65
2018-07-14T02:57:32.523Z,986.69
2018-07-14T02:58:32.472Z,986.65
2018-07-14T02:59:32.417Z,986.68
2018-07-14T03:00:32.367Z,986.62
2018-07-14T03:01:32.314Z,986.61
2018-07-14T03:02:32.261Z,986.61
2018-07-14T03:03:32.211Z,986.65
2018-07-14T03:04:32.158Z,986.62
2018-07-14T03:05:32.107Z,986.64
2018-07-14T03:06:32.056Z,986.66
2018-07-14T03:07:32.005Z,986.66
2018-07-14T03:08:31.959Z,986.67
2018-07-14T03:09:31.905Z,986.63
2018-07-14T03:10:31.852Z,986.63
2018-07-14T03:11:31.798Z,986.67
2018-07-14T03:12:31.746Z,986.66
2018-07-14T03:13:31.694Z,986.64
2018-07-14T03:14:31.644Z,986.68
2018-07-14T03:15:31.593Z,986.63
2018-07-14T03:16:31.540Z,986.68
2018-07-14T03:17:31.488Z,986.69
2018-07-14T03:18:31.437Z,986.66
2018-07-14T03:19:31.425Z,986.69
2018-07-14T03:20:31.336Z,986.62
2018-07-14T03:21:31.292Z,986.64
2018-07-14T03:22:31.231Z,986.63
2018-07-14T03:23:31.178Z,986.65
2018-07-14T03:24:31.128Z,986.63
2018-07-14T03:25:31.076Z,986.65
2018-07-14T03:26:31.024Z,986.62
2018-07-14T03:27:30.974Z,986.61
2018-07-14T03:28:30.921Z,986.61
2018-07-14T03:29:30.872Z,986.59
2018-07-14T03:30:30.819Z,986.57
2018-07-14T03:31:30.769Z,986.54
2018-07-14T03:32:30.716Z,986.56
2018-07-14T03:33:30.666Z,986.55
2018-07-14T03:34:30.615Z,986.55
2018-07-14T03:35:30.565Z,986.58
2018-07-14T03:36:30.510Z,986.54
2018-07-14T03:37:30.465Z,986.55
2018-07-14T03:38:30.407Z,986.53
2018-07-14T03:39:30.357Z,986.53
2018-07-14T03:40:30.304Z,986.53
2018-07-14T03:41:30.252Z,986.52
2018-07-14T03:42:30.231Z,986.51
2018-07-14T03:43:30.154Z,986.49
2018-07-14T03:44:30.104Z,986.51
2018-07-14T03:45:30.050Z,986.51
2018-07-14T03:46:29.996Z,986.51
2018-07-14T03:47:29.946Z,986.54
2018-07-14T03:48:29.893Z,986.51
2018-07-14T03:49:29.842Z,986.50
2018-07-14T03:50:29.791Z,986.56
2018-07-14T03:51:29.742Z,986.58
2018-07-14T03:52:29.687Z,986.58
2018-07-14T03:53:29.637Z,986.57
2018-07-14T03:54:29.588Z,986.55
2018-07-14T03:55:29.535Z,986.56
2018-07-14T03:56:29.484Z,986.58
2018-07-14T03:57:29.432Z,986.58
2018-07-14T03:58:29.382Z,986.55
2018-07-14T03:59:29.329Z,986.53
2018-07-14T04:00:29.278Z,986.58
2018-07-14T04:01:29.226Z,986.59
2018-07-14T04:02:29.176Z,986.65
2018-07-14T04:03:29.127Z,986.56
2018-07-14T04:04:29.074Z,986.54
2018-07-14T04:05:29.022Z,986.55
2018-07-14T04:06:28.997Z,986.52
2018-07-14T04:07:28.920Z,986.54
2018-07-14T04:08:28.870Z,986.49
2018-07-14T04:09:28.818Z,986.51
2018-07-14T04:10:28.767Z,986.47
2018-07-14T04:11:28.716Z,986.49
2018-07-14T04:12:28.664Z,986.51
2018-07-14T04:13:28.614Z,986.49
2018-07-14T04:14:28.562Z,986.47
2018-07-14T04:15:28.518Z,986.53
2018-07-14T04:16:28.461Z,986.53
2018-07-14T04:17:28.408Z,986.54
2018-07-14T04:18:28.359Z,986.56
2018-07-14T04:19:28.306Z,986.54
2018-07-14T04:20:28.256Z,986.55
2018-07-14T04:21:28.205Z,986.58
2018-07-14T04:22:28.154Z,986.58
2018-07-14T04:23:28.102Z,986.56
2018-07-14T04:24:28.051Z,986.55
2018-07-14T04:25:28.000Z,986.60
2018-07-14T04:26:27.946Z,986.56
2018-07-14T04:27:27.899Z,986.59
2018-07-14T04:28:27.847Z,986.64
2018-07-14T04:29:27.793Z,986.59
2018-07-14T04:30:27.747Z,986.63
2018-07-14T04:31:27.690Z,986.64
2018-07-14T04:32:27.638Z,986.60
2018-07-14T04:33:27.590Z,986.62
2018-07-14T04:34:27.536Z,986.60
2018-07-14T04:35:27.489Z,986.60
2018-07-14T04:36:27.436Z,986.62
2018-07-14T04:37:27.389Z,986.62
2018-07-14T04:38:27.332Z,986.61
2018-07-14T04:39:27.280Z,986.59
2018-07-14T04:40:27.230Z,986.63
2018-07-14T04:41:27.179Z,986.60
2018-07-14T04:42:27.194Z,986.62
2018-07-14T04:43:27.081Z,986.63
2018-07-14T04:44:27.028Z,986.62
2018-07-14T04:45:26.977Z,986.58
2018-07-14T04:46:26.923Z,986.66
2018-07-14T04:47:26.871Z,986.64
2018-07-14T04:48:26.818Z,986.69
2018-07-14T04:49:26.782Z,986.68
2018-07-14T04:50:26.719Z,986.76
2018-07-14T04:51:26.666Z,986.75
2018-07-14T04:52:26.618Z,986.73
2018-07-14T04:53:26.565Z,986.70
2018-07-14T04:54:26.513Z,986.76
2018-07-14T04:55:26.463Z,986.71
2018-07-14T04:56:47.403Z,986.71
2018-07-14T04:57:26.365Z,986.75
2018-07-14T04:58:26.311Z,986.74
2018-07-14T04:59:26.260Z,986.76
2018-07-14T05:00:26.208Z,986.69
2018-07-14T05:01:26.157Z,986.70
2018-07-14T05:02:26.107Z,986.72
2018-07-14T05:03:26.067Z,986.68
2018-07-14T05:04:26.005Z,986.68
2018-07-14T05:05:25.955Z,986.71
2018-07-14T05:06:25.919Z,986.71
2018-07-14T05:07:25.854Z,986.72
2018-07-14T05:08:25.804Z,986.72
2018-07-14T05:09:25.756Z,986.71
2018-07-14T05:10:25.703Z,986.76
2018-07-14T05:11:25.654Z,986.74
2018-07-14T05:12:25.602Z,986.73
2018-07-14T05:13:25.550Z,986.74
2018-07-14T05:14:25.522Z,986.75
2018-07-14T05:15:25.451Z,986.72
2018-07-14T05:16:25.400Z,986.74
2018-07-14T05:17:25.348Z,986.75
2018-07-14T05:18:25.299Z,986.74
2018-07-14T05:19:25.248Z,986.72
2018-07-14T05:20:25.196Z,986.71
2018-07-14T05:21:25.152Z,986.72
2018-07-14T05:22:25.101Z,986.67
2018-07-14T05:23:25.048Z,986.63
2018-07-14T05:24:25.000Z,986.66
2018-07-14T05:25:24.952Z,986.69
2018-07-14T05:26:24.899Z,986.70
2018-07-14T05:27:24.848Z,986.67
2018-07-14T05:28:24.796Z,986.70
2018-07-14T05:29:24.746Z,986.72
2018-07-14T05:30:24.695Z,986.71
2018-07-14T05:31:24.646Z,986.68
2018-07-14T05:32:24.646Z,986.73
2018-07-14T05:33:24.547Z,986.69
2018-07-14T05:34:24.501Z,986.73
2018-07-14T05:35:24.444Z,986.74
2018-07-14T05:36:24.396Z,986.72
2018-07-14T05:37:24.344Z,986.74
2018-07-14T05:38:24.379Z,986.73
2018-07-14T05:39:24.245Z,986.74
2018-07-14T05:40:24.194Z,986.75
2018-07-14T05:41:24.144Z,986.74
2018-07-14T05:42:24.101Z,986.75
2018-07-14T05:43:24.044Z,986.71
2018-07-14T05:44:23.994Z,986.73
2018-07-14T05:45:23.944Z,986.71
2018-07-14T05:46:23.894Z,986.69
2018-07-14T05:47:23.844Z,986.66
2018-07-14T05:48:23.795Z,986.65
2018-07-14T05:49:23.744Z,986.63
2018-07-14T05:50:23.696Z,986.68
2018-07-14T05:51:23.647Z,986.66
2018-07-14T05:52:23.595Z,986.72
2018-07-14T05:53:23.545Z,986.66
2018-07-14T05:54:23.498Z,986.69
2018-07-14T05:55:23.448Z,986.63
2018-07-14T05:56:23.396Z,986.66
2018-07-14T05:57:23.348Z,986.66
2018-07-14T05:58:23.298Z,986.67
2018-07-14T05:59:23.249Z,986.64
2018-07-14T06:00:23.202Z,986.64
2018-07-14T06:01:23.150Z,986.63
2018-07-14T06:02:23.100Z,986.59
2018-07-14T06:03:23.052Z,986.58
2018-07-14T06:04:23.001Z,986.60
2018-07-14T06:05:22.954Z,986.62
2018-07-14T06:06:22.946Z,986.64
2018-07-14T06:07:22.854Z,986.62
2018-07-14T06:08:22.805Z,986.66
2018-07-14T06:09:22.755Z,986.61
2018-07-14T06:10:22.706Z,986.63
2018-07-14T06:11:22.658Z,986.59
2018-07-14T06:12:22.608Z,986.60
2018-07-14T06:13:22.559Z,986.58
2018-07-14T06:14:22.579Z,986.57
2018-07-14T06:15:22.460Z,986.58
2018-07-14T06:16:22.412Z,986.55
2018-07-14T06:17:22.497Z,986.55
2018-07-14T06:18:22.313Z,986.57
2018-07-14T06:19:22.265Z,986.52
2018-07-14T06:20:22.214Z,986.47
2018-07-14T06:21:22.165Z,986.50
2018-07-14T06:22:22.120Z,986.47
2018-07-14T06:23:22.070Z,986.48
2018-07-14T06:24:22.019Z,986.48
2018-07-14T06:25:21.973Z,986.52
2018-07-14T06:26:21.923Z,986.53
2018-07-14T06:27:21.874Z,986.48
2018-07-14T06:28:21.824Z,986.51
2018-07-14T06:29:21.775Z,986.51
2018-07-14T06:30:21.727Z,986.52
2018-07-14T06:31:21.680Z,986.55
2018-07-14T06:32:21.629Z,986.56
2018-07-14T06:33:21.636Z,986.56
2018-07-14T06:34:21.534Z,986.51
2018-07-14T06:35:21.484Z,986.53
2018-07-14T06:36:21.434Z,986.56
2018-07-14T06:37:21.388Z,986.58
2018-07-14T06:38:21.353Z,986.55
2018-07-14T06:39:21.292Z,986.58
2018-07-14T06:40:21.243Z,986.59
2018-07-14T06:41:21.194Z,986.56
2018-07-14T06:42:21.146Z,986.60
2018-07-14T06:43:21.098Z,986.55
2018-07-14T06:44:21.049Z,986.55
2018-07-14T06:45:21.001Z,986.53
2018-07-14T06:46:20.955Z,986.57
2018-07-14T06:47:20.907Z,986.54
2018-07-14T06:48:20.857Z,986.53
2018-07-14T06:49:20.810Z,986.51
2018-07-14T06:50:20.762Z,986.51
2018-07-14T06:51:20.713Z,986.57
2018-07-14T06:52:20.668Z,986.53
2018-07-14T06:53:20.702Z,986.56
2018-07-14T06:54:20.708Z,986.52
2018-07-14T06:55:20.525Z,986.56
2018-07-14T06:56:20.475Z,986.48
2018-07-14T06:57:20.427Z,986.49
2018-07-14T06:58:20.380Z,986.48
2018-07-14T06:59:20.332Z,986.48
2018-07-14T07:00:20.285Z,986.47
2018-07-14T07:01:20.239Z,986.47
2018-07-14T07:02:20.188Z,986.47
2018-07-14T07:03:20.205Z,986.41
2018-07-14T07:04:20.094Z,986.43
2018-07-14T07:05:20.050Z,986.40
2018-07-14T07:06:19.999Z,986.40
2018-07-14T07:07:19.952Z,986.39
2018-07-14T07:08:19.904Z,986.39
2018-07-14T07:09:19.856Z,986.39
2018-07-14T07:10:19.808Z,986.44
2018-07-14T07:11:19.763Z,986.43
2018-07-14T07:12:19.715Z,986.41
2018-07-14T07:13:19.668Z,986.45
2018-07-14T07:14:19.619Z,986.43
2018-07-14T07:15:19.573Z,986.43
2018-07-14T07:16:19.525Z,986.44
2018-07-14T07:17:19.480Z,986.47
2018-07-14T07:18:19.434Z,986.46
2018-07-14T07:19:19.448Z,986.50
2018-07-14T07:20:19.336Z,986.48
2018-07-14T07:21:19.324Z,986.50
2018-07-14T07:22:19.242Z,986.52
2018-07-14T07:23:19.195Z,986.48
2018-07-14T07:24:19.146Z,986.52
2018-07-14T07:25:19.101Z,986.51
2018-07-14T07:26:19.055Z,986.50
2018-07-14T07:27:19.008Z,986.53
2018-07-14T07:28:18.963Z,986.56
2018-07-14T07:29:18.912Z,986.50
2018-07-14T07:30:18.866Z,986.50
2018-07-14T07:31:18.819Z,986.54
2018-07-14T07:32:18.771Z,986.42
2018-07-14T07:33:18.725Z,986.42
2018-07-14T07:34:18.678Z,986.40
2018-07-14T07:35:18.634Z,986.42
2018-07-14T07:36:18.594Z,986.41
2018-07-14T07:37:18.538Z,986.38
2018-07-14T07:38:18.492Z,986.39
2018-07-14T07:39:18.445Z,986.39
2018-07-14T07:40:18.399Z,986.41
2018-07-14T07:41:18.351Z,986.42
2018-07-14T07:42:18.313Z,986.39
2018-07-14T07:43:18.277Z,986.43
2018-07-14T07:44:18.212Z,986.38
2018-07-14T07:45:18.167Z,986.37
2018-07-14T07:46:18.118Z,986.33
2018-07-14T07:47:18.074Z,986.36
2018-07-14T07:48:18.026Z,986.37
2018-07-14T07:49:17.980Z,986.37
2018-07-14T07:50:17.933Z,986.28
2018-07-14T07:51:17.891Z,986.27
2018-07-14T07:52:17.841Z,986.26
2018-07-14T07:53:17.794Z,986.24
2018-07-14T07:54:17.748Z,986.23
2018-07-14T07:55:17.703Z,986.24
2018-07-14T07:56:17.657Z,986.25
2018-07-14T07:57:17.613Z,986.23
2018-07-14T07:58:17.670Z,986.25
2018-07-14T07:59:17.519Z,986.24
2018-07-14T08:00:17.474Z,986.25
2018-07-14T08:01:17.431Z,986.24
2018-07-14T08:02:17.382Z,986.21
2018-07-14T08:03:17.337Z,986.21
2018-07-14T08:04:17.289Z,986.16
2018-07-14T08:05:17.243Z,986.19
2018-07-14T08:06:17.204Z,986.21
2018-07-14T08:07:17.153Z,986.20
2018-07-14T08:08:17.107Z,986.20
2018-07-14T08:09:17.072Z,986.21
2018-07-14T08:10:17.016Z,986.21
2018-07-14T08:11:16.971Z,986.22
2018-07-14T08:12:16.924Z,986.23
2018-07-14T08:13:16.880Z,986.22
2018-07-14T08:14:16.834Z,986.26
2018-07-14T08:15:16.792Z,986.24
2018-07-14T08:16:16.746Z,986.22
2018-07-14T08:17:16.697Z,986.23
2018-07-14T08:18:16.668Z,986.22
2018-07-14T08:19:16.608Z,986.17
2018-07-14T08:20:16.561Z,986.18
2018-07-14T08:21:16.517Z,986.16
2018-07-14T08:22:16.472Z,986.15
2018-07-14T08:23:16.428Z,986.11
2018-07-14T08:24:16.421Z,986.12
2018-07-14T08:25:16.337Z,986.12
2018-07-14T08:26:16.294Z,986.15
2018-07-14T08:27:16.251Z,986.13
2018-07-14T08:28:16.207Z,986.15
2018-07-14T08:29:16.159Z,986.13
2018-07-14T08:30:16.116Z,986.15
2018-07-14T08:31:16.069Z,986.17
2018-07-14T08:32:16.036Z,986.14
2018-07-14T08:33:15.980Z,986.12
2018-07-14T08:34:15.974Z,986.12
2018-07-14T08:35:15.890Z,986.15
2018-07-14T08:36:15.850Z,986.13
2018-07-14T08:37:15.801Z,986.14
2018-07-14T08:38:15.758Z,986.17
2018-07-14T08:39:15.713Z,986.15
2018-07-14T08:40:15.670Z,986.10
2018-07-14T08:41:15.626Z,986.11
2018-07-14T08:42:15.583Z,986.06
2018-07-14T08:43:15.535Z,986.11
2018-07-14T08:44:15.489Z,986.15
2018-07-14T08:45:15.446Z,986.11
2018-07-14T08:46:15.401Z,986.09
2018-07-14T08:47:15.366Z,986.13
2018-07-14T08:48:15.317Z,986.17
2018-07-14T08:49:15.268Z,986.15
2018-07-14T08:50:15.238Z,986.07
2018-07-14T08:51:15.201Z,986.10
2018-07-14T08:52:15.137Z,986.15
2018-07-14T08:53:15.093Z,986.11
2018-07-14T08:54:15.051Z,986.09
2018-07-14T08:55:15.007Z,986.08
2018-07-14T08:56:14.963Z,986.09
2018-07-14T08:57:14.921Z,986.10
2018-07-14T08:58:14.911Z,986.07
2018-07-14T08:59:14.830Z,986.08
2018-07-14T09:00:14.795Z,986.04
2018-07-14T09:01:14.741Z,986.05
2018-07-14T09:02:14.699Z,986.04
2018-07-14T09:03:14.655Z,986.06
2018-07-14T09:04:14.613Z,986.04
2018-07-14T09:05:14.569Z,986.03
2018-07-14T09:06:14.546Z,986.05
2018-07-14T09:07:14.485Z,985.99
2018-07-14T09:08:14.436Z,986.00
2018-07-14T09:09:14.391Z,986.03
2018-07-14T09:10:14.349Z,986.03
2018-07-14T09:11:14.309Z,986.02
2018-07-14T09:12:14.263Z,986.04
2018-07-14T09:13:14.220Z,986.03
2018-07-14T09:14:14.176Z,985.98
2018-07-14T09:15:14.131Z,986.00
2018-07-14T09:16:14.089Z,985.93
2018-07-14T09:17:14.049Z,985.98
2018-07-14T09:18:14.010Z,985.97
2018-07-14T09:19:13.959Z,985.97
2018-07-14T09:20:13.915Z,985.93
2018-07-14T09:21:13.871Z,985.91
2018-07-14T09:22:13.828Z,985.92
2018-07-14T09:23:13.784Z,985.87
2018-07-14T09:24:13.740Z,985.89
2018-07-14T09:25:13.699Z,985.83
2018-07-14T09:26:13.694Z,985.84
2018-07-14T09:27:13.615Z,985.85
2018-07-14T09:28:13.569Z,985.84
2018-07-14T09:29:13.527Z,985.87
2018-07-14T09:30:13.483Z,985.85
2018-07-14T09:31:13.441Z,985.85
2018-07-14T09:32:13.398Z,985.85
2018-07-14T09:33:13.353Z,985.78
2018-07-14T09:34:13.314Z,985.78
2018-07-14T09:35:13.269Z,985.82
2018-07-14T09:36:13.226Z,985.77
2018-07-14T09:37:13.186Z,985.80
2018-07-14T09:38:13.142Z,985.76
2018-07-14T09:39:13.097Z,985.76
2018-07-14T09:40:13.058Z,985.72
2018-07-14T09:41:13.012Z,985.72
2018-07-14T09:42:12.969Z,985.69
2018-07-14T09:43:12.926Z,985.68
2018-07-14T09:44:12.891Z,985.65
2018-07-14T09:45:12.841Z,985.65
2018-07-14T09:46:12.798Z,985.71
2018-07-14T09:47:12.771Z,985.69
2018-07-14T09:48:12.713Z,985.69
2018-07-14T09:49:12.672Z,985.66
2018-07-14T09:50:12.629Z,985.65
2018-07-14T09:51:12.589Z,985.63
2018-07-14T09:52:12.546Z,985.62
2018-07-14T09:53:12.500Z,985.51
2018-07-14T09:54:12.460Z,985.52
2018-07-14T09:55:12.478Z,985.50
2018-07-14T09:56:12.374Z,985.48
2018-07-14T09:57:12.332Z,985.49
2018-07-14T09:58:12.290Z,985.49
2018-07-14T09:59:12.247Z,985.54
2018-07-14T10:00:12.208Z,985.48
2018-07-14T10:01:12.163Z,985.45
2018-07-14T10:02:12.122Z,985.40
2018-07-14T10:03:12.082Z,985.37
2018-07-14T10:04:12.038Z,985.38
2018-07-14T10:05:11.994Z,985.39
2018-07-14T10:06:12.007Z,985.31
2018-07-14T10:07:11.912Z,985.42
2018-07-14T10:08:11.868Z,985.35
2018-07-14T10:09:11.831Z,985.33
2018-07-14T10:10:11.784Z,985.35
2018-07-14T10:11:11.741Z,985.39
2018-07-14T10:12:11.697Z,985.38
2018-07-14T10:13:11.677Z,985.33
2018-07-14T10:14:11.615Z,985.39
2018-07-14T10:15:11.575Z,985.39
2018-07-14T10:16:11.530Z,985.36
2018-07-14T10:17:11.494Z,985.31
2018-07-14T10:18:11.446Z,985.28
2018-07-14T10:19:11.405Z,985.27
2018-07-14T10:20:11.362Z,985.25
2018-07-14T10:21:11.320Z,985.26
2018-07-14T10:22:11.288Z,985.20
2018-07-14T10:23:11.235Z,985.23
2018-07-14T10:24:11.194Z,985.20
2018-07-14T10:25:11.188Z,985.18
2018-07-14T10:26:11.109Z,985.23
2018-07-14T10:27:11.067Z,985.21
2018-07-14T10:28:11.026Z,985.27
2018-07-14T10:29:11.052Z,985.22
2018-07-14T10:30:10.939Z,985.21
2018-07-14T10:31:10.897Z,985.23
2018-07-14T10:32:10.859Z,985.20
2018-07-14T10:33:10.812Z,985.30
2018-07-14T10:34:10.768Z,985.31
2018-07-14T10:35:10.725Z,985.31
2018-07-14T10:36:10.682Z,985.27
2018-07-14T10:37:10.639Z,985.28
2018-07-14T10:38:10.597Z,985.26
2018-07-14T10:39:10.554Z,985.26
2018-07-14T10:40:10.510Z,985.23
2018-07-14T10:41:10.469Z,985.30
2018-07-14T10:42:10.494Z,985.24
2018-07-14T10:43:10.384Z,985.26
2018-07-14T10:44:10.339Z,985.22
2018-07-14T10:45:10.295Z,985.24
2018-07-14T10:46:10.254Z,985.22
2018-07-14T10:47:10.211Z,985.23
2018-07-14T10:48:10.168Z,985.24
2018-07-14T10:49:10.125Z,985.26
2018-07-14T10:50:10.083Z,985.23
2018-07-14T10:51:10.040Z,985.19
2018-07-14T10:52:09.995Z,985.21
2018-07-14T10:53:09.952Z,985.23
2018-07-14T10:54:09.911Z,985.20
2018-07-14T10:55:09.872Z,985.22
2018-07-14T10:56:09.824Z,985.25
2018-07-14T10:57:09.781Z,985.28
2018-07-14T10:58:09.805Z,985.18
2018-07-14T10:59:09.694Z,985.20
2018-07-14T11:00:09.652Z,985.23
2018-07-14T11:01:09.612Z,985.17
2018-07-14T11:02:09.566Z,985.12
2018-07-14T11:03:09.523Z,985.13
2018-07-14T11:04:09.481Z,985.13
2018-07-14T11:05:09.440Z,985.11
2018-07-14T11:06:09.451Z,985.13
2018-07-14T11:07:09.354Z,985.10
2018-07-14T11:08:09.313Z,985.13
2018-07-14T11:09:09.269Z,985.07
2018-07-14T11:10:09.227Z,985.09
2018-07-14T11:11:09.185Z,985.06
2018-07-14T11:12:09.188Z,985.06
2018-07-14T11:13:09.101Z,985.07
2018-07-14T11:14:09.059Z,985.06
2018-07-14T11:15:09.034Z,985.07
2018-07-14T11:16:08.974Z,985.05
2018-07-14T11:17:08.931Z,985.01
2018-07-14T11:18:08.892Z,985.06
2018-07-14T11:19:08.850Z,985.08
2018-07-14T11:20:08.805Z,985.07
2018-07-14T11:21:08.837Z,985.13
2018-07-14T11:22:08.723Z,985.04
2018-07-14T11:23:08.680Z,985.05
2018-07-14T11:24:08.638Z,985.04
2018-07-14T11:25:08.596Z,985.05
2018-07-14T11:26:08.555Z,985.03
2018-07-14T11:27:08.514Z,985.00
2018-07-14T11:28:08.472Z,985.02
2018-07-14T11:29:08.429Z,984.92
2018-07-14T11:30:08.405Z,984.95
2018-07-14T11:31:08.347Z,984.95
2018-07-14T11:32:08.305Z,984.95
2018-07-14T11:33:08.263Z,984.97
2018-07-14T11:34:08.221Z,984.91
2018-07-14T11:35:08.180Z,984.89
2018-07-14T11:36:08.135Z,984.93
2018-07-14T11:37:08.097Z,984.92
2018-07-14T11:38:08.056Z,984.93
2018-07-14T11:39:08.012Z,985.00
2018-07-14T11:40:07.967Z,984.95
2018-07-14T11:41:07.925Z,984.96
2018-07-14T11:42:07.933Z,984.97
2018-07-14T11:43:07.840Z,985.02
2018-07-14T11:44:07.797Z,984.98
2018-07-14T11:45:07.755Z,984.99
2018-07-14T11:46:07.716Z,984.99
2018-07-14T11:47:07.672Z,984.94
2018-07-14T11:48:07.631Z,984.92
2018-07-14T11:49:07.589Z,984.93
2018-07-14T11:50:07.544Z,984.90
2018-07-14T11:51:07.504Z,984.94
2018-07-14T11:52:07.459Z,984.89
2018-07-14T11:53:07.417Z,984.89
2018-07-14T11:54:07.386Z,984.85
2018-07-14T11:55:07.336Z,984.81
2018-07-14T11:56:07.289Z,984.80
2018-07-14T11:57:07.251Z,984.84
2018-07-14T11:58:07.207Z,984.85
2018-07-14T11:59:07.166Z,984.81
2018-07-14T12:00:07.124Z,984.81
2018-07-14T12:01:07.079Z,984.80
2018-07-14T12:02:07.115Z,984.81
2018-07-14T12:03:06.997Z,984.77
2018-07-14T12:04:06.959Z,984.77
2018-07-14T12:05:06.919Z,984.78
2018-07-14T12:06:06.871Z,984.72
2018-07-14T12:07:06.831Z,984.69
2018-07-14T12:08:06.786Z,984.66
2018-07-14T12:09:06.760Z,984.66
2018-07-14T12:10:06.708Z,984.59
2018-07-14T12:11:06.669Z,984.65
2018-07-14T12:12:06.620Z,984.68
2018-07-14T12:13:06.578Z,984.61
2018-07-14T12:14:06.538Z,984.65
2018-07-14T12:15:06.496Z,984.64
2018-07-14T12:16:06.452Z,984.62
2018-07-14T12:17:06.412Z,984.62
2018-07-14T12:18:06.368Z,984.57
2018-07-14T12:19:06.328Z,984.57
2018-07-14T12:20:06.289Z,984.57
2018-07-14T12:21:06.246Z,984.57
2018-07-14T12:22:06.227Z,984.58
2018-07-14T12:23:06.162Z,984.56
2018-07-14T12:24:06.118Z,984.50
2018-07-14T12:25:06.078Z,984.51
2018-07-14T12:26:06.039Z,984.49
2018-07-14T12:27:05.994Z,984.50
2018-07-14T12:28:05.956Z,984.43